sensor_id;sensor_type;location;lat;lon;timestamp;temperature;humidity
15713;DHT22;7957;51.608;6.916;2023-03-01T00:00:17;-0.10;2.30
15713;DHT22;7957;51.608;6.916;2023-03-01T00:02:44;-0.10;16.00
15713;DHT22;7957;51.608;6.916;2023-03-01T00:05:12;-0.10;27.90
15713;DHT22;7957;51.608;6.916;2023-03-01T00:07:39;-0.10;37.70
15713;DHT22;7957;51.608;6.916;2023-03-01T00:10:07;-0.10;62.80
15713;DHT22;7957;51.608;6.916;2023-03-01T00:12:34;-0.10;64.50
15713;DHT22;7957;51.608;6.916;2023-03-01T00:15:02;-0.10;91.10
15713;DHT22;7957;51.608;6.916;2023-03-01T00:17:30;-0.20;98.30
15713;DHT22;7957;51.608;6.916;2023-03-01T00:19:57;-0.20;99.90
15713;DHT22;7957;51.608;6.916;2023-03-01T00:22:26;-0.20;99.90
15713;DHT22;7957;51.608;6.916;2023-03-01T00:24:54;-0.20;99.90
15713;DHT22;7957;51.608;6.916;2023-03-01T00:27:20;-0.20;99.90
15713;DHT22;7957;51.608;6.916;2023-03-01T00:29:47;-0.20;99.90
15713;DHT22;7957;51.608;6.916;2023-03-01T00:32:14;-0.30;99.90
15713;DHT22;7957;51.608;6.916;2023-03-01T00:34:41;-0.30;99.90
15713;DHT22;7957;51.608;6.916;2023-03-01T00:37:08;-0.20;99.90
15713;DHT22;7957;51.608;6.916;2023-03-01T00:39:36;-0.30;99.90
15713;DHT22;7957;51.608;6.916;2023-03-01T00:42:03;-0.30;99.90
15713;DHT22;7957;51.608;6.916;2023-03-01T00:44:31;-0.30;99.90
15713;DHT22;7957;51.608;6.916;2023-03-01T00:46:57;-0.30;99.90
15713;DHT22;7957;51.608;6.916;2023-03-01T00:49:24;-0.30;99.90
15713;DHT22;7957;51.608;6.916;2023-03-01T00:51:53;-0.40;99.90
15713;DHT22;7957;51.608;6.916;2023-03-01T00:54:20;-0.30;99.90
15713;DHT22;7957;51.608;6.916;2023-03-01T00:56:48;-0.40;99.90
15713;DHT22;7957;51.608;6.916;2023-03-01T00:59:15;-0.40;99.90
15713;DHT22;7957;51.608;6.916;2023-03-01T01:01:42;-0.40;99.90
15713;DHT22;7957;51.608;6.916;2023-03-01T01:04:11;-0.40;99.90
15713;DHT22;7957;51.608;6.916;2023-03-01T01:06:40;-0.40;99.90
15713;DHT22;7957;51.608;6.916;2023-03-01T01:09:09;-0.50;99.90
15713;DHT22;7957;51.608;6.916;2023-03-01T01:11:42;-0.50;99.90
15713;DHT22;7957;51.608;6.916;2023-03-01T01:14:11;-0.50;99.90
15713;DHT22;7957;51.608;6.916;2023-03-01T01:16:38;-0.50;99.90
15713;DHT22;7957;51.608;6.916;2023-03-01T01:19:06;-0.50;99.90
15713;DHT22;7957;51.608;6.916;2023-03-01T01:21:33;-0.50;99.90
15713;DHT22;7957;51.608;6.916;2023-03-01T01:24:00;-0.60;99.90
15713;DHT22;7957;51.608;6.916;2023-03-01T01:26:29;-0.60;99.90
15713;DHT22;7957;51.608;6.916;2023-03-01T01:28:56;-0.60;99.90
15713;DHT22;7957;51.608;6.916;2023-03-01T01:31:26;-0.60;99.90
15713;DHT22;7957;51.608;6.916;2023-03-01T01:33:55;-0.50;99.90
15713;DHT22;7957;51.608;6.916;2023-03-01T01:36:23;-0.60;99.90
15713;DHT22;7957;51.608;6.916;2023-03-01T01:38:50;-0.60;1.00
15713;DHT22;7957;51.608;6.916;2023-03-01T01:41:17;-0.60;1.00
15713;DHT22;7957;51.608;6.916;2023-03-01T01:43:46;-0.60;1.00
15713;DHT22;7957;51.608;6.916;2023-03-01T01:46:19;-0.60;1.00
15713;DHT22;7957;51.608;6.916;2023-03-01T01:48:54;-0.60;1.00
15713;DHT22;7957;51.608;6.916;2023-03-01T01:51:24;-0.70;1.00
15713;DHT22;7957;51.608;6.916;2023-03-01T01:53:55;-0.70;1.00
15713;DHT22;7957;51.608;6.916;2023-03-01T01:56:23;-0.70;1.00
15713;DHT22;7957;51.608;6.916;2023-03-01T01:58:51;-0.70;1.00
15713;DHT22;7957;51.608;6.916;2023-03-01T02:01:18;-0.70;1.00
15713;DHT22;7957;51.608;6.916;2023-03-01T02:03:46;-0.70;1.00
15713;DHT22;7957;51.608;6.916;2023-03-01T02:06:19;-0.80;1.00
15713;DHT22;7957;51.608;6.916;2023-03-01T02:08:49;-0.70;1.00
15713;DHT22;7957;51.608;6.916;2023-03-01T02:11:17;-0.70;1.00
15713;DHT22;7957;51.608;6.916;2023-03-01T02:13:47;-0.80;1.00
15713;DHT22;7957;51.608;6.916;2023-03-01T02:16:15;-0.80;1.00
15713;DHT22;7957;51.608;6.916;2023-03-01T02:18:43;-0.70;1.00
15713;DHT22;7957;51.608;6.916;2023-03-01T02:21:28;-0.80;1.00
15713;DHT22;7957;51.608;6.916;2023-03-01T02:23:59;-0.80;1.00
15713;DHT22;7957;51.608;6.916;2023-03-01T02:26:36;-0.80;1.00
15713;DHT22;7957;51.608;6.916;2023-03-01T02:29:07;-0.80;1.00
15713;DHT22;7957;51.608;6.916;2023-03-01T02:31:34;-0.80;1.00
15713;DHT22;7957;51.608;6.916;2023-03-01T02:34:12;-0.80;1.00
15713;DHT22;7957;51.608;6.916;2023-03-01T02:36:43;-0.90;1.00
15713;DHT22;7957;51.608;6.916;2023-03-01T02:39:13;-0.90;1.00
15713;DHT22;7957;51.608;6.916;2023-03-01T02:41:47;-0.90;1.00
15713;DHT22;7957;51.608;6.916;2023-03-01T02:44:17;-0.90;1.00
15713;DHT22;7957;51.608;6.916;2023-03-01T02:46:46;-0.90;1.00
15713;DHT22;7957;51.608;6.916;2023-03-01T02:49:20;-0.90;1.00
15713;DHT22;7957;51.608;6.916;2023-03-01T02:54:46;-0.90;1.00
15713;DHT22;7957;51.608;6.916;2023-03-01T02:57:14;-1.00;1.00
15713;DHT22;7957;51.608;6.916;2023-03-01T02:59:43;-0.90;1.00
15713;DHT22;7957;51.608;6.916;2023-03-01T03:02:19;-1.00;1.00
15713;DHT22;7957;51.608;6.916;2023-03-01T03:05:02;-1.00;1.00
15713;DHT22;7957;51.608;6.916;2023-03-01T03:07:32;-1.00;1.00
15713;DHT22;7957;51.608;6.916;2023-03-01T03:09:58;-1.00;1.00
15713;DHT22;7957;51.608;6.916;2023-03-01T03:12:25;-1.00;1.00
15713;DHT22;7957;51.608;6.916;2023-03-01T03:14:54;-1.00;1.00
15713;DHT22;7957;51.608;6.916;2023-03-01T03:17:20;-1.00;1.00
15713;DHT22;7957;51.608;6.916;2023-03-01T03:19:48;-1.00;1.00
15713;DHT22;7957;51.608;6.916;2023-03-01T03:22:15;-1.00;1.00
15713;DHT22;7957;51.608;6.916;2023-03-01T03:24:42;-1.10;1.00
15713;DHT22;7957;51.608;6.916;2023-03-01T03:27:09;-1.10;1.00
15713;DHT22;7957;51.608;6.916;2023-03-01T03:29:36;-1.10;1.00
15713;DHT22;7957;51.608;6.916;2023-03-01T03:32:04;-1.10;1.00
15713;DHT22;7957;51.608;6.916;2023-03-01T03:34:32;-1.10;1.00
15713;DHT22;7957;51.608;6.916;2023-03-01T03:36:59;-1.10;1.00
15713;DHT22;7957;51.608;6.916;2023-03-01T03:39:26;-1.10;1.00
15713;DHT22;7957;51.608;6.916;2023-03-01T03:41:54;-1.10;1.00
15713;DHT22;7957;51.608;6.916;2023-03-01T03:44:21;-1.10;1.00
15713;DHT22;7957;51.608;6.916;2023-03-01T03:46:48;-1.10;1.00
15713;DHT22;7957;51.608;6.916;2023-03-01T03:49:17;-1.20;1.00
15713;DHT22;7957;51.608;6.916;2023-03-01T03:51:45;-1.20;1.00
15713;DHT22;7957;51.608;6.916;2023-03-01T03:54:12;-1.20;1.00
15713;DHT22;7957;51.608;6.916;2023-03-01T03:56:39;-1.20;1.00
15713;DHT22;7957;51.608;6.916;2023-03-01T03:59:05;-1.20;1.00
15713;DHT22;7957;51.608;6.916;2023-03-01T04:01:33;-1.20;1.00
15713;DHT22;7957;51.608;6.916;2023-03-01T04:03:59;-1.20;1.00
15713;DHT22;7957;51.608;6.916;2023-03-01T04:06:30;-1.20;1.00
15713;DHT22;7957;51.608;6.916;2023-03-01T04:08:57;-1.20;1.00
15713;DHT22;7957;51.608;6.916;2023-03-01T04:11:26;-1.20;1.00
15713;DHT22;7957;51.608;6.916;2023-03-01T04:13:57;-1.20;4.00
15713;DHT22;7957;51.608;6.916;2023-03-01T04:16:24;-1.20;14.00
15713;DHT22;7957;51.608;6.916;2023-03-01T04:18:52;-1.30;11.60
15713;DHT22;7957;51.608;6.916;2023-03-01T04:21:20;-1.30;17.90
15713;DHT22;7957;51.608;6.916;2023-03-01T04:23:49;-1.30;25.10
15713;DHT22;7957;51.608;6.916;2023-03-01T04:26:17;-1.30;31.00
15713;DHT22;7957;51.608;6.916;2023-03-01T04:28:44;-1.30;31.10
15713;DHT22;7957;51.608;6.916;2023-03-01T04:31:15;-1.30;35.30
15713;DHT22;7957;51.608;6.916;2023-03-01T04:33:44;-1.30;55.30
15713;DHT22;7957;51.608;6.916;2023-03-01T04:36:12;-1.30;64.60
15713;DHT22;7957;51.608;6.916;2023-03-01T04:38:40;-1.30;58.50
15713;DHT22;7957;51.608;6.916;2023-03-01T04:41:10;-1.30;66.90
15713;DHT22;7957;51.608;6.916;2023-03-01T04:43:37;-1.30;71.40
15713;DHT22;7957;51.608;6.916;2023-03-01T04:46:06;-1.40;88.80
15713;DHT22;7957;51.608;6.916;2023-03-01T04:48:35;-1.40;90.60
15713;DHT22;7957;51.608;6.916;2023-03-01T04:51:03;-1.40;99.90
15713;DHT22;7957;51.608;6.916;2023-03-01T04:53:31;-1.40;99.90
15713;DHT22;7957;51.608;6.916;2023-03-01T04:55:59;-1.40;99.90
15713;DHT22;7957;51.608;6.916;2023-03-01T04:58:28;-1.40;99.90
15713;DHT22;7957;51.608;6.916;2023-03-01T05:00:55;-1.40;99.90
15713;DHT22;7957;51.608;6.916;2023-03-01T05:03:22;-1.40;99.90
15713;DHT22;7957;51.608;6.916;2023-03-01T05:05:51;-1.40;99.90
15713;DHT22;7957;51.608;6.916;2023-03-01T05:08:19;-1.40;99.90
15713;DHT22;7957;51.608;6.916;2023-03-01T05:10:48;-1.40;99.90
15713;DHT22;7957;51.608;6.916;2023-03-01T05:13:15;-1.50;99.90
15713;DHT22;7957;51.608;6.916;2023-03-01T05:15:49;-1.50;99.90
15713;DHT22;7957;51.608;6.916;2023-03-01T05:18:20;-1.50;99.90
15713;DHT22;7957;51.608;6.916;2023-03-01T05:20:47;-1.50;99.90
15713;DHT22;7957;51.608;6.916;2023-03-01T05:23:13;-1.50;99.90
15713;DHT22;7957;51.608;6.916;2023-03-01T05:25:40;-1.50;99.90
15713;DHT22;7957;51.608;6.916;2023-03-01T05:28:10;-1.50;99.90
15713;DHT22;7957;51.608;6.916;2023-03-01T05:30:38;-1.50;99.90
15713;DHT22;7957;51.608;6.916;2023-03-01T05:33:08;-1.50;99.90
15713;DHT22;7957;51.608;6.916;2023-03-01T05:35:39;-1.50;99.90
15713;DHT22;7957;51.608;6.916;2023-03-01T05:38:06;-1.60;99.90
15713;DHT22;7957;51.608;6.916;2023-03-01T05:40:34;-1.50;99.90
15713;DHT22;7957;51.608;6.916;2023-03-01T05:43:01;-1.60;99.90
15713;DHT22;7957;51.608;6.916;2023-03-01T05:45:31;-1.50;99.90
15713;DHT22;7957;51.608;6.916;2023-03-01T05:47:59;-1.50;99.90
15713;DHT22;7957;51.608;6.916;2023-03-01T05:50:29;-1.50;99.90
15713;DHT22;7957;51.608;6.916;2023-03-01T05:52:58;-1.60;99.90
15713;DHT22;7957;51.608;6.916;2023-03-01T05:55:27;-1.60;99.90
15713;DHT22;7957;51.608;6.916;2023-03-01T05:57:54;-1.60;99.90
15713;DHT22;7957;51.608;6.916;2023-03-01T06:00:21;-1.60;99.90
15713;DHT22;7957;51.608;6.916;2023-03-01T06:02:48;-1.60;99.90
15713;DHT22;7957;51.608;6.916;2023-03-01T06:05:15;-1.60;99.90
15713;DHT22;7957;51.608;6.916;2023-03-01T06:07:44;-1.60;99.90
15713;DHT22;7957;51.608;6.916;2023-03-01T06:10:12;-1.60;99.90
15713;DHT22;7957;51.608;6.916;2023-03-01T06:12:40;-1.60;99.90
15713;DHT22;7957;51.608;6.916;2023-03-01T06:15:08;-1.60;99.90
15713;DHT22;7957;51.608;6.916;2023-03-01T06:17:37;-1.60;99.90
15713;DHT22;7957;51.608;6.916;2023-03-01T06:20:05;-1.60;99.90
15713;DHT22;7957;51.608;6.916;2023-03-01T06:22:32;-1.70;99.90
15713;DHT22;7957;51.608;6.916;2023-03-01T06:25:01;-1.70;99.90
15713;DHT22;7957;51.608;6.916;2023-03-01T06:27:29;-1.70;99.90
15713;DHT22;7957;51.608;6.916;2023-03-01T06:29:56;-1.70;99.90
15713;DHT22;7957;51.608;6.916;2023-03-01T06:32:23;-1.70;99.90
15713;DHT22;7957;51.608;6.916;2023-03-01T06:34:50;-1.70;99.90
15713;DHT22;7957;51.608;6.916;2023-03-01T06:37:17;-1.80;99.90
15713;DHT22;7957;51.608;6.916;2023-03-01T06:39:44;-1.80;99.90
15713;DHT22;7957;51.608;6.916;2023-03-01T06:42:14;-1.80;99.90
15713;DHT22;7957;51.608;6.916;2023-03-01T06:44:41;-1.80;99.90
15713;DHT22;7957;51.608;6.916;2023-03-01T06:47:07;-1.80;99.90
15713;DHT22;7957;51.608;6.916;2023-03-01T06:49:34;-1.80;99.90
15713;DHT22;7957;51.608;6.916;2023-03-01T06:52:01;-1.70;99.90
15713;DHT22;7957;51.608;6.916;2023-03-01T06:54:28;-1.80;99.90
15713;DHT22;7957;51.608;6.916;2023-03-01T06:56:55;-1.80;99.90
15713;DHT22;7957;51.608;6.916;2023-03-01T06:59:23;-1.80;99.90
15713;DHT22;7957;51.608;6.916;2023-03-01T07:01:50;-1.70;99.90
15713;DHT22;7957;51.608;6.916;2023-03-01T07:04:17;-1.70;99.90
15713;DHT22;7957;51.608;6.916;2023-03-01T07:06:44;-1.70;99.90
15713;DHT22;7957;51.608;6.916;2023-03-01T07:09:11;-1.70;99.90
15713;DHT22;7957;51.608;6.916;2023-03-01T07:11:38;-1.70;1.00
15713;DHT22;7957;51.608;6.916;2023-03-01T07:14:04;-1.70;1.00
15713;DHT22;7957;51.608;6.916;2023-03-01T07:16:33;-1.70;1.00
15713;DHT22;7957;51.608;6.916;2023-03-01T07:19:00;-1.70;1.00
15713;DHT22;7957;51.608;6.916;2023-03-01T07:21:27;-1.70;1.00
15713;DHT22;7957;51.608;6.916;2023-03-01T07:23:54;-1.60;1.00
15713;DHT22;7957;51.608;6.916;2023-03-01T07:26:21;-1.60;1.00
15713;DHT22;7957;51.608;6.916;2023-03-01T07:28:48;-1.60;1.00
15713;DHT22;7957;51.608;6.916;2023-03-01T07:31:15;-1.60;1.00
15713;DHT22;7957;51.608;6.916;2023-03-01T07:33:43;-1.50;1.00
15713;DHT22;7957;51.608;6.916;2023-03-01T07:36:10;-1.50;1.00
15713;DHT22;7957;51.608;6.916;2023-03-01T07:38:37;-1.50;1.00
15713;DHT22;7957;51.608;6.916;2023-03-01T07:41:04;-1.40;1.00
15713;DHT22;7957;51.608;6.916;2023-03-01T07:43:31;-1.40;1.00
15713;DHT22;7957;51.608;6.916;2023-03-01T07:45:59;-1.40;1.00
15713;DHT22;7957;51.608;6.916;2023-03-01T07:48:26;-1.40;1.00
15713;DHT22;7957;51.608;6.916;2023-03-01T07:50:57;-1.40;1.00
15713;DHT22;7957;51.608;6.916;2023-03-01T07:53:28;-1.30;1.00
15713;DHT22;7957;51.608;6.916;2023-03-01T07:56:03;-1.20;1.00
15713;DHT22;7957;51.608;6.916;2023-03-01T07:58:31;-1.10;1.00
15713;DHT22;7957;51.608;6.916;2023-03-01T08:01:01;-1.00;1.00
15713;DHT22;7957;51.608;6.916;2023-03-01T08:03:28;-1.00;1.00
15713;DHT22;7957;51.608;6.916;2023-03-01T08:05:59;-1.00;1.00
15713;DHT22;7957;51.608;6.916;2023-03-01T08:08:26;-1.00;1.00
15713;DHT22;7957;51.608;6.916;2023-03-01T08:10:56;-0.90;1.00
15713;DHT22;7957;51.608;6.916;2023-03-01T08:13:23;-0.90;1.00
15713;DHT22;7957;51.608;6.916;2023-03-01T08:15:50;-0.90;1.00
15713;DHT22;7957;51.608;6.916;2023-03-01T08:18:18;-0.80;1.00
15713;DHT22;7957;51.608;6.916;2023-03-01T08:20:45;-0.80;1.00
15713;DHT22;7957;51.608;6.916;2023-03-01T08:23:13;-0.70;1.00
15713;DHT22;7957;51.608;6.916;2023-03-01T08:25:40;-0.70;1.00
15713;DHT22;7957;51.608;6.916;2023-03-01T08:28:07;-0.70;1.00
15713;DHT22;7957;51.608;6.916;2023-03-01T08:30:34;-0.60;1.00
15713;DHT22;7957;51.608;6.916;2023-03-01T08:33:01;-0.60;1.00
15713;DHT22;7957;51.608;6.916;2023-03-01T08:35:28;-0.60;1.00
15713;DHT22;7957;51.608;6.916;2023-03-01T08:37:55;-0.50;1.00
15713;DHT22;7957;51.608;6.916;2023-03-01T08:40:23;-0.50;1.00
15713;DHT22;7957;51.608;6.916;2023-03-01T08:42:50;-0.40;1.00
15713;DHT22;7957;51.608;6.916;2023-03-01T08:45:17;-0.30;1.00
15713;DHT22;7957;51.608;6.916;2023-03-01T08:47:44;-0.30;1.00
15713;DHT22;7957;51.608;6.916;2023-03-01T08:50:11;-0.20;1.00
15713;DHT22;7957;51.608;6.916;2023-03-01T08:52:38;0.00;1.00
15713;DHT22;7957;51.608;6.916;2023-03-01T08:55:06;0.10;8.00
15713;DHT22;7957;51.608;6.916;2023-03-01T08:57:35;0.40;70.10
15713;DHT22;7957;51.608;6.916;2023-03-01T09:00:03;0.70;99.90
15713;DHT22;7957;51.608;6.916;2023-03-01T09:02:34;1.00;99.90
15713;DHT22;7957;51.608;6.916;2023-03-01T09:05:01;1.40;99.90
15713;DHT22;7957;51.608;6.916;2023-03-01T09:07:28;1.80;99.90
15713;DHT22;7957;51.608;6.916;2023-03-01T09:09:54;2.10;99.90
15713;DHT22;7957;51.608;6.916;2023-03-01T09:12:22;2.50;99.90
15713;DHT22;7957;51.608;6.916;2023-03-01T09:14:51;2.80;99.90
15713;DHT22;7957;51.608;6.916;2023-03-01T09:17:18;3.10;99.90
15713;DHT22;7957;51.608;6.916;2023-03-01T09:19:46;3.30;20.50
15713;DHT22;7957;51.608;6.916;2023-03-01T09:22:13;3.60;1.00
15713;DHT22;7957;51.608;6.916;2023-03-01T09:24:40;3.80;1.00
15713;DHT22;7957;51.608;6.916;2023-03-01T09:27:07;3.90;1.00
15713;DHT22;7957;51.608;6.916;2023-03-01T09:29:35;4.10;1.00
15713;DHT22;7957;51.608;6.916;2023-03-01T09:32:03;4.20;99.90
15713;DHT22;7957;51.608;6.916;2023-03-01T09:34:31;4.10;99.90
15713;DHT22;7957;51.608;6.916;2023-03-01T09:37:17;4.10;1.00
15713;DHT22;7957;51.608;6.916;2023-03-01T09:39:44;3.90;1.00
15713;DHT22;7957;51.608;6.916;2023-03-01T09:42:12;3.80;1.00
15713;DHT22;7957;51.608;6.916;2023-03-01T09:44:46;3.70;1.00
15713;DHT22;7957;51.608;6.916;2023-03-01T09:47:18;3.60;99.90
15713;DHT22;7957;51.608;6.916;2023-03-01T09:49:57;3.60;99.90
15713;DHT22;7957;51.608;6.916;2023-03-01T09:52:30;3.70;99.90
15713;DHT22;7957;51.608;6.916;2023-03-01T09:55:00;3.70;99.90
15713;DHT22;7957;51.608;6.916;2023-03-01T09:57:33;3.80;99.90
15713;DHT22;7957;51.608;6.916;2023-03-01T10:00:13;3.80;99.90
15713;DHT22;7957;51.608;6.916;2023-03-01T10:02:47;3.80;99.90
15713;DHT22;7957;51.608;6.916;2023-03-01T10:05:36;3.80;96.30
15713;DHT22;7957;51.608;6.916;2023-03-01T10:08:30;3.70;28.90
15713;DHT22;7957;51.608;6.916;2023-03-01T10:11:01;3.70;1.00
15713;DHT22;7957;51.608;6.916;2023-03-01T10:13:34;3.70;1.00
15713;DHT22;7957;51.608;6.916;2023-03-01T10:16:10;3.60;1.00
15713;DHT22;7957;51.608;6.916;2023-03-01T10:18:40;3.60;1.00
15713;DHT22;7957;51.608;6.916;2023-03-01T10:21:14;3.50;1.00
15713;DHT22;7957;51.608;6.916;2023-03-01T10:23:42;3.50;1.00
15713;DHT22;7957;51.608;6.916;2023-03-01T10:26:30;3.50;1.00
15713;DHT22;7957;51.608;6.916;2023-03-01T10:29:03;3.40;1.00
15713;DHT22;7957;51.608;6.916;2023-03-01T10:31:38;3.50;1.00
15713;DHT22;7957;51.608;6.916;2023-03-01T10:34:15;3.50;1.00
15713;DHT22;7957;51.608;6.916;2023-03-01T10:36:44;3.50;1.00
15713;DHT22;7957;51.608;6.916;2023-03-01T10:39:16;3.60;1.00
15713;DHT22;7957;51.608;6.916;2023-03-01T10:41:55;3.50;1.00
15713;DHT22;7957;51.608;6.916;2023-03-01T10:44:37;3.60;1.00
15713;DHT22;7957;51.608;6.916;2023-03-01T10:47:04;3.60;1.00
15713;DHT22;7957;51.608;6.916;2023-03-01T10:49:34;3.60;1.00
15713;DHT22;7957;51.608;6.916;2023-03-01T10:52:17;3.70;1.00
15713;DHT22;7957;51.608;6.916;2023-03-01T10:54:52;3.90;1.00
15713;DHT22;7957;51.608;6.916;2023-03-01T10:57:44;4.00;1.00
15713;DHT22;7957;51.608;6.916;2023-03-01T11:00:19;4.20;1.00
15713;DHT22;7957;51.608;6.916;2023-03-01T11:02:49;4.30;99.90
15713;DHT22;7957;51.608;6.916;2023-03-01T11:05:21;4.30;99.90
15713;DHT22;7957;51.608;6.916;2023-03-01T11:07:51;4.20;99.90
15713;DHT22;7957;51.608;6.916;2023-03-01T11:10:20;4.10;99.90
15713;DHT22;7957;51.608;6.916;2023-03-01T11:12:48;4.00;99.90
15713;DHT22;7957;51.608;6.916;2023-03-01T11:15:24;4.00;99.90
15713;DHT22;7957;51.608;6.916;2023-03-01T11:17:51;4.00;99.90
15713;DHT22;7957;51.608;6.916;2023-03-01T11:20:25;4.00;99.90
15713;DHT22;7957;51.608;6.916;2023-03-01T11:22:55;4.00;99.90
15713;DHT22;7957;51.608;6.916;2023-03-01T11:25:25;4.10;99.90
15713;DHT22;7957;51.608;6.916;2023-03-01T11:27:54;4.10;99.90
15713;DHT22;7957;51.608;6.916;2023-03-01T11:30:25;4.20;99.90
15713;DHT22;7957;51.608;6.916;2023-03-01T11:33:03;4.20;83.40
15713;DHT22;7957;51.608;6.916;2023-03-01T11:35:34;4.30;51.90
15713;DHT22;7957;51.608;6.916;2023-03-01T11:38:14;4.30;45.20
15713;DHT22;7957;51.608;6.916;2023-03-01T11:40:46;4.50;35.80
15713;DHT22;7957;51.608;6.916;2023-03-01T11:43:22;4.60;29.90
15713;DHT22;7957;51.608;6.916;2023-03-01T11:46:11;4.80;6.60
15713;DHT22;7957;51.608;6.916;2023-03-01T11:48:52;5.00;1.00
15713;DHT22;7957;51.608;6.916;2023-03-01T11:51:38;5.20;1.00
15713;DHT22;7957;51.608;6.916;2023-03-01T11:54:17;5.40;1.00
15713;DHT22;7957;51.608;6.916;2023-03-01T11:56:51;5.70;11.00
15713;DHT22;7957;51.608;6.916;2023-03-01T12:05:55;6.90;1.70
15713;DHT22;7957;51.608;6.916;2023-03-01T12:08:35;7.30;1.00
15713;DHT22;7957;51.608;6.916;2023-03-01T12:11:11;7.50;1.00
15713;DHT22;7957;51.608;6.916;2023-03-01T12:13:59;7.60;1.00
15713;DHT22;7957;51.608;6.916;2023-03-01T12:16:36;7.90;1.00
15713;DHT22;7957;51.608;6.916;2023-03-01T12:19:15;8.10;1.00
15713;DHT22;7957;51.608;6.916;2023-03-01T12:21:57;8.20;1.00
15713;DHT22;7957;51.608;6.916;2023-03-01T12:24:45;8.40;1.00
15713;DHT22;7957;51.608;6.916;2023-03-01T12:27:31;8.60;1.00
15713;DHT22;7957;51.608;6.916;2023-03-01T12:30:10;8.70;1.00
15713;DHT22;7957;51.608;6.916;2023-03-01T12:32:49;8.70;1.00
15713;DHT22;7957;51.608;6.916;2023-03-01T12:35:30;8.70;1.00
15713;DHT22;7957;51.608;6.916;2023-03-01T12:38:13;8.70;1.00
15713;DHT22;7957;51.608;6.916;2023-03-01T12:41:00;8.60;1.00
15713;DHT22;7957;51.608;6.916;2023-03-01T12:43:44;8.60;99.90
15713;DHT22;7957;51.608;6.916;2023-03-01T12:46:26;8.60;99.90
15713;DHT22;7957;51.608;6.916;2023-03-01T12:49:02;8.60;99.90
15713;DHT22;7957;51.608;6.916;2023-03-01T12:51:32;8.50;99.90
15713;DHT22;7957;51.608;6.916;2023-03-01T12:54:06;8.40;99.90
15713;DHT22;7957;51.608;6.916;2023-03-01T12:56:39;8.50;99.90
15713;DHT22;7957;51.608;6.916;2023-03-01T12:59:13;8.60;99.90
15713;DHT22;7957;51.608;6.916;2023-03-01T13:01:48;8.60;99.90
15713;DHT22;7957;51.608;6.916;2023-03-01T13:04:30;8.80;99.90
15713;DHT22;7957;51.608;6.916;2023-03-01T13:07:07;8.90;99.90
15713;DHT22;7957;51.608;6.916;2023-03-01T13:09:40;9.00;99.90
15713;DHT22;7957;51.608;6.916;2023-03-01T13:12:43;9.00;99.90
15713;DHT22;7957;51.608;6.916;2023-03-01T13:15:28;9.00;99.90
15713;DHT22;7957;51.608;6.916;2023-03-01T13:17:57;8.90;91.20
15713;DHT22;7957;51.608;6.916;2023-03-01T13:20:28;8.90;53.00
15713;DHT22;7957;51.608;6.916;2023-03-01T13:23:12;8.80;22.60
15713;DHT22;7957;51.608;6.916;2023-03-01T13:26:03;8.70;1.00
15713;DHT22;7957;51.608;6.916;2023-03-01T13:28:50;8.70;1.00
15713;DHT22;7957;51.608;6.916;2023-03-01T13:34:46;8.50;1.00
15713;DHT22;7957;51.608;6.916;2023-03-01T13:37:25;8.40;1.00
15713;DHT22;7957;51.608;6.916;2023-03-01T13:39:55;8.40;1.00
15713;DHT22;7957;51.608;6.916;2023-03-01T13:42:41;8.50;1.00
15713;DHT22;7957;51.608;6.916;2023-03-01T13:45:25;8.50;1.00
15713;DHT22;7957;51.608;6.916;2023-03-01T13:48:02;8.50;1.00
15713;DHT22;7957;51.608;6.916;2023-03-01T13:50:36;8.40;1.00
15713;DHT22;7957;51.608;6.916;2023-03-01T13:53:06;8.40;1.00
15713;DHT22;7957;51.608;6.916;2023-03-01T13:55:38;8.40;1.00
15713;DHT22;7957;51.608;6.916;2023-03-01T13:58:16;8.40;1.00
15713;DHT22;7957;51.608;6.916;2023-03-01T14:00:46;8.40;1.00
15713;DHT22;7957;51.608;6.916;2023-03-01T14:03:15;8.50;1.00
15713;DHT22;7957;51.608;6.916;2023-03-01T14:05:57;8.60;1.00
15713;DHT22;7957;51.608;6.916;2023-03-01T14:08:26;8.70;1.00
15713;DHT22;7957;51.608;6.916;2023-03-01T14:14:02;8.70;1.00
15713;DHT22;7957;51.608;6.916;2023-03-01T14:16:42;8.70;1.00
15713;DHT22;7957;51.608;6.916;2023-03-01T14:19:18;8.60;1.00
15713;DHT22;7957;51.608;6.916;2023-03-01T14:21:46;8.60;99.90
15713;DHT22;7957;51.608;6.916;2023-03-01T14:24:21;8.50;99.90
15713;DHT22;7957;51.608;6.916;2023-03-01T14:26:49;8.40;99.90
15713;DHT22;7957;51.608;6.916;2023-03-01T14:29:24;8.40;99.90
15713;DHT22;7957;51.608;6.916;2023-03-01T14:31:53;8.40;99.90
15713;DHT22;7957;51.608;6.916;2023-03-01T14:34:21;8.30;99.90
15713;DHT22;7957;51.608;6.916;2023-03-01T14:36:49;8.30;99.90
15713;DHT22;7957;51.608;6.916;2023-03-01T14:39:17;8.20;99.90
15713;DHT22;7957;51.608;6.916;2023-03-01T14:41:44;8.10;99.90
15713;DHT22;7957;51.608;6.916;2023-03-01T14:44:15;8.00;99.90
15713;DHT22;7957;51.608;6.916;2023-03-01T14:46:44;8.00;99.90
15713;DHT22;7957;51.608;6.916;2023-03-01T14:49:15;7.80;99.90
15713;DHT22;7957;51.608;6.916;2023-03-01T14:51:49;7.80;99.90
15713;DHT22;7957;51.608;6.916;2023-03-01T14:54:24;7.70;99.90
15713;DHT22;7957;51.608;6.916;2023-03-01T14:56:53;7.60;99.90
15713;DHT22;7957;51.608;6.916;2023-03-01T14:59:22;7.50;99.90
15713;DHT22;7957;51.608;6.916;2023-03-01T15:01:50;7.40;99.90
15713;DHT22;7957;51.608;6.916;2023-03-01T15:04:19;7.40;99.90
15713;DHT22;7957;51.608;6.916;2023-03-01T15:06:50;7.30;99.90
15713;DHT22;7957;51.608;6.916;2023-03-01T15:09:18;7.30;99.90
15713;DHT22;7957;51.608;6.916;2023-03-01T15:11:45;7.30;99.90
15713;DHT22;7957;51.608;6.916;2023-03-01T15:14:36;7.20;99.90
15713;DHT22;7957;51.608;6.916;2023-03-01T15:17:04;7.10;99.90
15713;DHT22;7957;51.608;6.916;2023-03-01T15:19:33;7.00;99.90
15713;DHT22;7957;51.608;6.916;2023-03-01T15:22:00;7.00;99.90
15713;DHT22;7957;51.608;6.916;2023-03-01T15:24:37;6.90;99.90
15713;DHT22;7957;51.608;6.916;2023-03-01T15:27:05;6.90;99.90
15713;DHT22;7957;51.608;6.916;2023-03-01T15:29:33;6.80;99.90
15713;DHT22;7957;51.608;6.916;2023-03-01T15:32:25;6.80;99.90
15713;DHT22;7957;51.608;6.916;2023-03-01T15:34:53;6.70;99.90
15713;DHT22;7957;51.608;6.916;2023-03-01T15:37:39;6.60;99.90
15713;DHT22;7957;51.608;6.916;2023-03-01T15:40:19;6.60;99.90
15713;DHT22;7957;51.608;6.916;2023-03-01T15:42:47;6.50;99.90
15713;DHT22;7957;51.608;6.916;2023-03-01T15:45:22;6.50;99.90
15713;DHT22;7957;51.608;6.916;2023-03-01T15:47:51;6.40;99.90
15713;DHT22;7957;51.608;6.916;2023-03-01T15:50:22;6.40;99.60
15713;DHT22;7957;51.608;6.916;2023-03-01T15:52:50;6.40;94.90
15713;DHT22;7957;51.608;6.916;2023-03-01T15:55:19;6.30;95.20
15713;DHT22;7957;51.608;6.916;2023-03-01T15:57:48;6.20;96.30
15713;DHT22;7957;51.608;6.916;2023-03-01T16:00:16;6.20;90.00
15713;DHT22;7957;51.608;6.916;2023-03-01T16:02:44;6.20;90.60
15713;DHT22;7957;51.608;6.916;2023-03-01T16:05:18;6.10;92.70
15713;DHT22;7957;51.608;6.916;2023-03-01T16:07:47;6.10;94.40
15713;DHT22;7957;51.608;6.916;2023-03-01T16:10:14;6.10;92.80
15713;DHT22;7957;51.608;6.916;2023-03-01T16:12:41;6.00;91.70
15713;DHT22;7957;51.608;6.916;2023-03-01T16:15:15;6.00;82.60
15713;DHT22;7957;51.608;6.916;2023-03-01T16:17:43;5.90;73.50
15713;DHT22;7957;51.608;6.916;2023-03-01T16:20:11;5.80;66.30
15713;DHT22;7957;51.608;6.916;2023-03-01T16:22:41;5.70;77.30
15713;DHT22;7957;51.608;6.916;2023-03-01T16:25:10;5.60;69.60
15713;DHT22;7957;51.608;6.916;2023-03-01T16:27:38;5.50;64.30
15713;DHT22;7957;51.608;6.916;2023-03-01T16:30:06;5.40;65.40
15713;DHT22;7957;51.608;6.916;2023-03-01T16:32:37;5.30;67.10
15713;DHT22;7957;51.608;6.916;2023-03-01T16:35:04;5.30;72.20
15713;DHT22;7957;51.608;6.916;2023-03-01T16:37:32;5.20;81.30